sensor_id;sensor_type;location;lat;lon;timestamp;P1;durP1;ratioP1;P2;durP2;ratioP2
74219;SDS011;62580;54.416;11.120;2022-11-20T00:07:03;0.40;;;0.40;;
74219;SDS011;62580;54.416;11.120;2022-11-20T00:17:04;0.50;;;0.50;;
74219;SDS011;62580;54.416;11.120;2022-11-20T00:27:06;0.50;;;0.50;;
74219;SDS011;62580;54.416;11.120;2022-11-20T00:37:07;0.40;;;0.40;;
74219;SDS011;62580;54.416;11.120;2022-11-20T00:47:09;0.50;;;0.50;;
74219;SDS011;62580;54.416;11.120;2022-11-20T00:57:09;0.30;;;0.30;;
74219;SDS011;62580;54.416;11.120;2022-11-20T01:07:11;0.40;;;0.40;;
74219;SDS011;62580;54.416;11.120;2022-11-20T01:17:12;0.63;;;0.63;;
74219;SDS011;62580;54.416;11.120;2022-11-20T01:27:14;0.40;;;0.40;;
74219;SDS011;62580;54.416;11.120;2022-11-20T01:37:14;0.47;;;0.47;;
74219;SDS011;62580;54.416;11.120;2022-11-20T01:47:17;0.50;;;0.50;;
74219;SDS011;62580;54.416;11.120;2022-11-20T01:57:29;0.53;;;0.30;;
74219;SDS011;62580;54.416;11.120;2022-11-20T02:07:35;0.50;;;0.50;;
74219;SDS011;62580;54.416;11.120;2022-11-20T02:17:36;0.50;;;0.50;;
74219;SDS011;62580;54.416;11.120;2022-11-20T02:27:39;0.60;;;0.60;;
74219;SDS011;62580;54.416;11.120;2022-11-20T02:37:40;0.53;;;0.53;;
74219;SDS011;62580;54.416;11.120;2022-11-20T02:47:42;0.40;;;0.40;;
74219;SDS011;62580;54.416;11.120;2022-11-20T02:57:42;0.57;;;0.57;;
74219;SDS011;62580;54.416;11.120;2022-11-20T03:07:44;0.47;;;0.47;;
74219;SDS011;62580;54.416;11.120;2022-11-20T03:17:45;0.40;;;0.40;;
74219;SDS011;62580;54.416;11.120;2022-11-20T03:27:47;0.40;;;0.40;;
74219;SDS011;62580;54.416;11.120;2022-11-20T03:37:48;0.60;;;0.60;;
74219;SDS011;62580;54.416;11.120;2022-11-20T03:47:50;0.40;;;0.40;;
74219;SDS011;62580;54.416;11.120;2022-11-20T03:57:50;0.50;;;0.50;;
74219;SDS011;62580;54.416;11.120;2022-11-20T04:07:53;0.40;;;0.40;;
74219;SDS011;62580;54.416;11.120;2022-11-20T04:17:54;0.50;;;0.50;;
74219;SDS011;62580;54.416;11.120;2022-11-20T04:27:56;0.37;;;0.37;;
74219;SDS011;62580;54.416;11.120;2022-11-20T04:37:56;0.50;;;0.50;;
74219;SDS011;62580;54.416;11.120;2022-11-20T04:47:58;0.50;;;0.50;;
74219;SDS011;62580;54.416;11.120;2022-11-20T04:57:59;0.50;;;0.50;;
74219;SDS011;62580;54.416;11.120;2022-11-20T05:08:01;0.63;;;0.63;;
74219;SDS011;62580;54.416;11.120;2022-11-20T05:18:01;0.60;;;0.60;;
74219;SDS011;62580;54.416;11.120;2022-11-20T05:28:03;0.57;;;0.57;;
74219;SDS011;62580;54.416;11.120;2022-11-20T05:38:04;0.50;;;0.50;;
74219;SDS011;62580;54.416;11.120;2022-11-20T05:48:06;0.50;;;0.50;;
74219;SDS011;62580;54.416;11.120;2022-11-20T05:58:06;0.40;;;0.40;;
74219;SDS011;62580;54.416;11.120;2022-11-20T06:08:09;0.40;;;0.40;;
74219;SDS011;62580;54.416;11.120;2022-11-20T06:18:09;0.30;;;0.30;;
74219;SDS011;62580;54.416;11.120;2022-11-20T06:28:11;0.40;;;0.40;;
74219;SDS011;62580;54.416;11.120;2022-11-20T06:38:12;0.60;;;0.50;;
74219;SDS011;62580;54.416;11.120;2022-11-20T06:48:14;0.40;;;0.40;;
74219;SDS011;62580;54.416;11.120;2022-11-20T06:58:15;0.30;;;0.30;;
74219;SDS011;62580;54.416;11.120;2022-11-20T07:08:18;0.30;;;0.30;;
74219;SDS011;62580;54.416;11.120;2022-11-20T07:18:18;0.40;;;0.40;;
74219;SDS011;62580;54.416;11.120;2022-11-20T07:28:20;0.30;;;0.30;;
74219;SDS011;62580;54.416;11.120;2022-11-20T07:38:21;0.50;;;0.50;;
74219;SDS011;62580;54.416;11.120;2022-11-20T07:48:23;0.40;;;0.40;;
74219;SDS011;62580;54.416;11.120;2022-11-20T07:58:23;0.30;;;0.30;;
74219;SDS011;62580;54.416;11.120;2022-11-20T08:08:25;0.50;;;0.50;;
74219;SDS011;62580;54.416;11.120;2022-11-20T08:18:26;0.50;;;0.50;;
74219;SDS011;62580;54.416;11.120;2022-11-20T08:28:28;0.30;;;0.30;;
74219;SDS011;62580;54.416;11.120;2022-11-20T08:38:29;0.47;;;0.47;;
74219;SDS011;62580;54.416;11.120;2022-11-20T08:48:31;0.60;;;0.60;;
74219;SDS011;62580;54.416;11.120;2022-11-20T08:58:32;0.60;;;0.60;;
74219;SDS011;62580;54.416;11.120;2022-11-20T09:08:34;0.40;;;0.40;;
74219;SDS011;62580;54.416;11.120;2022-11-20T09:18:35;0.63;;;0.63;;
74219;SDS011;62580;54.416;11.120;2022-11-20T09:28:37;0.70;;;0.70;;
74219;SDS011;62580;54.416;11.120;2022-11-20T09:38:38;0.50;;;0.50;;
74219;SDS011;62580;54.416;11.120;2022-11-20T09:48:45;0.67;;;0.67;;
74219;SDS011;62580;54.416;11.120;2022-11-20T09:58:54;0.80;;;0.80;;
74219;SDS011;62580;54.416;11.120;2022-11-20T10:09:02;0.80;;;0.80;;
74219;SDS011;62580;54.416;11.120;2022-11-20T10:19:18;0.70;;;0.70;;
74219;SDS011;62580;54.416;11.120;2022-11-20T10:29:32;0.90;;;0.90;;
74219;SDS011;62580;54.416;11.120;2022-11-20T10:39:35;0.80;;;0.80;;
74219;SDS011;62580;54.416;11.120;2022-11-20T10:49:41;0.80;;;0.80;;
74219;SDS011;62580;54.416;11.120;2022-11-20T11:10:05;0.63;;;0.63;;
74219;SDS011;62580;54.416;11.120;2022-11-20T11:20:16;1.00;;;1.00;;
74219;SDS011;62580;54.416;11.120;2022-11-20T11:30:19;1.10;;;1.00;;
74219;SDS011;62580;54.416;11.120;2022-11-20T11:40:21;0.70;;;0.70;;
74219;SDS011;62580;54.416;11.120;2022-11-20T11:50:24;0.90;;;0.90;;
74219;SDS011;62580;54.416;11.120;2022-11-20T12:00:25;0.90;;;0.90;;
74219;SDS011;62580;54.416;11.120;2022-11-20T12:10:34;0.83;;;0.83;;
74219;SDS011;62580;54.416;11.120;2022-11-20T12:20:42;0.80;;;0.80;;
74219;SDS011;62580;54.416;11.120;2022-11-20T12:30:52;1.20;;;1.10;;
74219;SDS011;62580;54.416;11.120;2022-11-20T12:41:02;0.97;;;0.97;;
74219;SDS011;62580;54.416;11.120;2022-11-20T12:51:18;0.90;;;0.90;;
74219;SDS011;62580;54.416;11.120;2022-11-20T13:01:32;1.03;;;1.00;;
74219;SDS011;62580;54.416;11.120;2022-11-20T13:11:42;2.30;;;1.10;;
74219;SDS011;62580;54.416;11.120;2022-11-20T13:21:48;2.67;;;1.00;;
74219;SDS011;62580;54.416;11.120;2022-11-20T13:32:00;1.80;;;1.07;;
74219;SDS011;62580;54.416;11.120;2022-11-20T13:42:20;1.57;;;0.87;;
74219;SDS011;62580;54.416;11.120;2022-11-20T13:52:34;0.80;;;0.80;;
74219;SDS011;62580;54.416;11.120;2022-11-20T14:02:46;1.60;;;1.03;;
74219;SDS011;62580;54.416;11.120;2022-11-20T14:13:09;1.00;;;0.90;;
74219;SDS011;62580;54.416;11.120;2022-11-20T14:23:11;0.90;;;0.90;;
74219;SDS011;62580;54.416;11.120;2022-11-20T14:33:13;0.90;;;0.90;;
74219;SDS011;62580;54.416;11.120;2022-11-20T14:43:16;0.90;;;0.90;;
74219;SDS011;62580;54.416;11.120;2022-11-20T14:53:23;0.87;;;0.87;;
74219;SDS011;62580;54.416;11.120;2022-11-20T15:03:30;1.00;;;1.00;;
74219;SDS011;62580;54.416;11.120;2022-11-20T15:13:34;1.30;;;1.20;;
74219;SDS011;62580;54.416;11.120;2022-11-20T15:23:37;1.93;;;1.00;;
74219;SDS011;62580;54.416;11.120;2022-11-20T15:33:39;0.90;;;0.90;;
74219;SDS011;62580;54.416;11.120;2022-11-20T15:43:40;1.60;;;1.00;;
74219;SDS011;62580;54.416;11.120;2022-11-20T15:53:42;1.00;;;0.95;;
74219;SDS011;62580;54.416;11.120;2022-11-20T16:03:43;1.13;;;1.03;;
74219;SDS011;62580;54.416;11.120;2022-11-20T16:13:45;1.17;;;1.10;;
74219;SDS011;62580;54.416;11.120;2022-11-20T16:23:45;0.97;;;0.87;;
74219;SDS011;62580;54.416;11.120;2022-11-20T16:33:50;1.00;;;1.00;;
74219;SDS011;62580;54.416;11.120;2022-11-20T16:43:52;0.80;;;0.80;;
74219;SDS011;62580;54.416;11.120;2022-11-20T16:53:55;1.00;;;1.00;;
74219;SDS011;62580;54.416;11.120;2022-11-20T17:03:57;1.10;;;1.00;;
74219;SDS011;62580;54.416;11.120;2022-11-20T17:14:01;0.80;;;0.80;;
74219;SDS011;62580;54.416;11.120;2022-11-20T17:24:02;0.90;;;0.90;;
74219;SDS011;62580;54.416;11.120;2022-11-20T17:34:07;0.90;;;0.90;;
74219;SDS011;62580;54.416;11.120;2022-11-20T17:44:10;0.83;;;0.83;;
74219;SDS011;62580;54.416;11.120;2022-11-20T17:54:13;0.90;;;0.90;;
74219;SDS011;62580;54.416;11.120;2022-11-20T18:04:13;1.20;;;1.10;;
74219;SDS011;62580;54.416;11.120;2022-11-20T18:14:16;0.87;;;0.87;;
74219;SDS011;62580;54.416;11.120;2022-11-20T18:24:16;0.90;;;0.90;;
74219;SDS011;62580;54.416;11.120;2022-11-20T18:34:19;0.90;;;0.90;;
74219;SDS011;62580;54.416;11.120;2022-11-20T18:44:20;1.10;;;1.00;;
74219;SDS011;62580;54.416;11.120;2022-11-20T18:54:23;0.90;;;0.90;;
74219;SDS011;62580;54.416;11.120;2022-11-20T19:04:24;0.90;;;0.90;;
74219;SDS011;62580;54.416;11.120;2022-11-20T19:14:26;0.90;;;0.90;;
74219;SDS011;62580;54.416;11.120;2022-11-20T19:24:26;1.13;;;1.03;;
74219;SDS011;62580;54.416;11.120;2022-11-20T19:34:29;1.20;;;1.03;;
74219;SDS011;62580;54.416;11.120;2022-11-20T19:44:29;0.90;;;0.90;;
74219;SDS011;62580;54.416;11.120;2022-11-20T19:54:31;0.90;;;0.90;;
74219;SDS011;62580;54.416;11.120;2022-11-20T20:04:32;0.97;;;0.97;;
74219;SDS011;62580;54.416;11.120;2022-11-20T20:14:34;1.13;;;1.03;;
74219;SDS011;62580;54.416;11.120;2022-11-20T20:24:35;1.20;;;1.10;;
74219;SDS011;62580;54.416;11.120;2022-11-20T20:34:37;1.00;;;1.00;;
74219;SDS011;62580;54.416;11.120;2022-11-20T20:44:37;1.27;;;1.17;;
74219;SDS011;62580;54.416;11.120;2022-11-20T20:54:39;0.90;;;0.90;;
74219;SDS011;62580;54.416;11.120;2022-11-20T21:04:40;1.00;;;1.00;;
74219;SDS011;62580;54.416;11.120;2022-11-20T21:14:42;1.30;;;1.20;;
74219;SDS011;62580;54.416;11.120;2022-11-20T21:24:43;1.30;;;1.20;;
74219;SDS011;62580;54.416;11.120;2022-11-20T21:34:45;1.30;;;1.20;;
74219;SDS011;62580;54.416;11.120;2022-11-20T21:44:45;1.00;;;1.00;;
74219;SDS011;62580;54.416;11.120;2022-11-20T21:54:47;1.20;;;1.10;;
74219;SDS011;62580;54.416;11.120;2022-11-20T22:04:48;1.27;;;1.17;;
74219;SDS011;62580;54.416;11.120;2022-11-20T22:14:50;1.20;;;1.10;;
74219;SDS011;62580;54.416;11.120;2022-11-20T22:24:50;1.10;;;1.00;;
74219;SDS011;62580;54.416;11.120;2022-11-20T22:34:52;0.90;;;0.90;;
74219;SDS011;62580;54.416;11.120;2022-11-20T22:44:53;1.00;;;1.00;;
74219;SDS011;62580;54.416;11.120;2022-11-20T22:54:55;0.95;;;0.95;;
74219;SDS011;62580;54.416;11.120;2022-11-20T23:04:55;0.80;;;0.80;;
74219;SDS011;62580;54.416;11.120;2022-11-20T23:14:57;0.95;;;0.95;;
74219;SDS011;62580;54.416;11.120;2022-11-20T23:24:58;0.87;;;0.87;;
74219;SDS011;62580;54.416;11.120;2022-11-20T23:35:00;0.90;;;0.90;;
74219;SDS011;62580;54.416;11.120;2022-11-20T23:45:02;0.90;;;0.90;;
74219;SDS011;62580;54.416;11.120;2022-11-20T23:55:04;0.80;;;0.80;;
